createdAt,value
2019-03-04T00:01:49.633Z,9.60
2019-03-04T00:04:20.777Z,9.60
2019-03-04T00:06:53.000Z,9.50
2019-03-04T00:09:24.194Z,9.60
2019-03-04T00:11:55.369Z,9.60
2019-03-04T00:14:26.873Z,9.70
2019-03-04T00:16:58.027Z,9.70
2019-03-04T00:19:29.450Z,9.80
2019-03-04T00:22:00.646Z,9.90
2019-03-04T00:24:31.974Z,10.00
2019-03-04T00:27:03.153Z,10.00
2019-03-04T00:29:34.411Z,10.00
2019-03-04T00:32:05.527Z,10.00
2019-03-04T00:34:36.782Z,10.00
2019-03-04T00:37:07.926Z,10.00
2019-03-04T00:39:39.433Z,10.00
2019-03-04T00:42:11.070Z,10.00
2019-03-04T00:44:42.185Z,10.10
2019-03-04T00:47:13.314Z,10.20
2019-03-04T00:49:44.434Z,10.20
2019-03-04T00:52:15.611Z,10.20
2019-03-04T00:54:46.679Z,10.30
2019-03-04T00:57:17.804Z,10.30
2019-03-04T00:59:49.030Z,10.30
2019-03-04T01:02:24.170Z,10.20
2019-03-04T01:04:55.274Z,10.30
2019-03-04T01:07:26.479Z,10.30
2019-03-04T01:09:57.552Z,10.20
2019-03-04T01:12:28.680Z,10.20
2019-03-04T01:14:59.745Z,10.20
2019-03-04T01:17:30.936Z,10.10
2019-03-04T01:20:02.026Z,10.10
2019-03-04T01:22:33.295Z,10.10
2019-03-04T01:25:05.456Z,10.10
2019-03-04T01:27:36.597Z,10.00
2019-03-04T01:30:10.115Z,10.00
2019-03-04T01:32:41.276Z,9.90
2019-03-04T01:35:12.600Z,9.90
2019-03-04T01:37:43.701Z,9.90
2019-03-04T01:40:16.880Z,9.80
2019-03-04T01:42:47.991Z,9.80
2019-03-04T01:45:19.454Z,9.80
2019-03-04T01:47:50.580Z,9.80
2019-03-04T01:50:22.759Z,9.80
2019-03-04T01:52:53.940Z,9.80
2019-03-04T01:55:24.975Z,9.80
2019-03-04T01:57:56.159Z,9.80
2019-03-04T02:00:27.306Z,9.80
2019-03-04T02:02:58.432Z,9.80
2019-03-04T02:05:29.558Z,9.80
2019-03-04T02:08:00.799Z,9.80
2019-03-04T02:10:31.924Z,9.80
2019-03-04T02:13:03.081Z,9.80
2019-03-04T02:15:34.134Z,9.70
2019-03-04T02:18:05.246Z,9.70
2019-03-04T02:20:37.414Z,9.80
2019-03-04T02:23:08.494Z,9.70
2019-03-04T02:26:15.432Z,9.70
2019-03-04T02:28:46.767Z,9.80
2019-03-04T02:31:18.031Z,9.80
2019-03-04T02:33:49.268Z,9.80
2019-03-04T02:36:20.546Z,9.70
2019-03-04T02:38:51.898Z,9.60
2019-03-04T02:41:23.070Z,9.60
2019-03-04T02:43:54.401Z,9.60
2019-03-04T02:46:25.557Z,9.50
2019-03-04T02:48:56.768Z,9.50
2019-03-04T02:51:27.844Z,9.40
2019-03-04T02:53:58.985Z,9.40
2019-03-04T02:56:30.183Z,9.40
2019-03-04T02:59:01.329Z,9.30
2019-03-04T03:01:32.459Z,9.40
2019-03-04T03:04:03.548Z,9.40
2019-03-04T03:06:34.737Z,9.50
2019-03-04T03:09:08.807Z,9.40
2019-03-04T03:11:40.340Z,9.40
2019-03-04T03:14:11.507Z,9.40
2019-03-04T03:16:43.688Z,9.40
2019-03-04T03:19:15.999Z,9.40
2019-03-04T03:21:47.177Z,9.30
2019-03-04T03:24:18.291Z,9.30
2019-03-04T03:26:49.449Z,9.30
2019-03-04T03:29:20.650Z,9.30
2019-03-04T03:31:51.729Z,9.30
2019-03-04T03:34:22.849Z,9.30
2019-03-04T03:36:53.912Z,9.20
2019-03-04T03:39:25.077Z,9.10
2019-03-04T03:41:56.233Z,9.00
2019-03-04T03:44:27.496Z,9.10
2019-03-04T03:46:58.689Z,9.10
2019-03-04T03:49:29.916Z,9.10
2019-03-04T03:52:01.117Z,9.10
2019-03-04T03:54:32.325Z,9.10
2019-03-04T03:57:03.473Z,9.20
2019-03-04T03:59:34.606Z,9.20
2019-03-04T04:02:05.892Z,9.20
2019-03-04T04:04:38.118Z,9.30
2019-03-04T04:07:09.337Z,9.30
2019-03-04T04:09:40.628Z,9.30
2019-03-04T04:12:11.745Z,9.30
2019-03-04T04:14:42.912Z,9.30
2019-03-04T04:17:14.084Z,9.40
2019-03-04T04:19:45.200Z,9.40
2019-03-04T04:22:16.252Z,9.40
2019-03-04T04:24:47.500Z,9.40
2019-03-04T04:27:18.596Z,9.30
2019-03-04T04:29:49.730Z,9.10
2019-03-04T04:32:20.854Z,8.90
2019-03-04T04:34:52.007Z,8.70
2019-03-04T04:37:24.707Z,8.50
2019-03-04T04:39:55.846Z,8.30
2019-03-04T04:42:27.060Z,8.20
2019-03-04T04:44:58.171Z,8.10
2019-03-04T04:47:29.343Z,8.10
2019-03-04T04:50:00.697Z,7.90
2019-03-04T04:52:32.835Z,7.90
2019-03-04T04:55:03.990Z,7.90
2019-03-04T04:57:35.156Z,7.80
2019-03-04T05:00:09.742Z,7.80
2019-03-04T05:02:41.033Z,7.80
2019-03-04T05:05:12.222Z,7.90
2019-03-04T05:07:43.357Z,8.00
2019-03-04T05:10:16.738Z,8.10
2019-03-04T05:12:47.931Z,8.20
2019-03-04T05:15:19.069Z,8.30
2019-03-04T05:17:52.189Z,8.30
2019-03-04T05:20:24.464Z,8.40
2019-03-04T05:22:55.625Z,8.40
2019-03-04T05:25:26.813Z,8.40
2019-03-04T05:27:57.970Z,8.30
2019-03-04T05:30:29.120Z,8.30
2019-03-04T05:33:00.203Z,8.30
2019-03-04T05:35:31.352Z,8.30
2019-03-04T05:38:02.475Z,8.40
2019-03-04T05:40:33.640Z,8.40
2019-03-04T05:43:04.752Z,8.40
2019-03-04T05:45:35.828Z,8.40
2019-03-04T05:48:07.740Z,8.40
2019-03-04T05:50:39.028Z,8.30
2019-03-04T05:53:10.267Z,8.30
2019-03-04T05:55:41.468Z,8.20
2019-03-04T05:58:12.595Z,8.20
2019-03-04T06:00:44.432Z,8.10
2019-03-04T06:03:15.831Z,8.20
2019-03-04T06:05:46.990Z,8.20
2019-03-04T06:08:18.102Z,8.10
2019-03-04T06:10:49.304Z,8.20
2019-03-04T06:13:20.665Z,8.10
2019-03-04T06:15:51.893Z,8.10
2019-03-04T06:18:22.978Z,8.00
2019-03-04T06:20:54.517Z,8.00
2019-03-04T06:23:25.614Z,8.10
2019-03-04T06:25:57.007Z,8.10
2019-03-04T06:28:31.652Z,8.20
2019-03-04T06:31:02.826Z,8.30
2019-03-04T06:33:34.006Z,8.40
2019-03-04T06:36:05.172Z,8.60
2019-03-04T06:38:36.318Z,8.70
2019-03-04T06:41:07.529Z,8.90
2019-03-04T06:43:38.703Z,9.00
2019-03-04T06:46:10.011Z,9.20
2019-03-04T06:48:41.175Z,9.30
2019-03-04T06:51:16.019Z,9.50
2019-03-04T06:53:53.470Z,9.60
2019-03-04T06:56:37.780Z,9.70
2019-03-04T06:59:21.211Z,9.90
2019-03-04T07:01:55.716Z,9.90
2019-03-04T07:04:59.352Z,9.90
2019-03-04T07:07:30.445Z,10.00
2019-03-04T07:10:01.527Z,10.00
2019-03-04T07:12:34.122Z,10.10
2019-03-04T07:15:05.492Z,10.10
2019-03-04T07:17:37.672Z,10.20
2019-03-04T07:20:11.602Z,10.30
2019-03-04T07:22:42.888Z,10.40
2019-03-04T07:25:14.104Z,10.60
2019-03-04T07:27:45.199Z,10.70
2019-03-04T07:30:16.384Z,10.70
2019-03-04T07:32:47.540Z,10.80
2019-03-04T07:35:18.694Z,10.90
2019-03-04T07:37:59.549Z,11.00
2019-03-04T07:40:30.774Z,11.20
2019-03-04T07:43:01.880Z,11.30
2019-03-04T07:45:32.987Z,11.30
2019-03-04T07:48:04.154Z,11.30
2019-03-04T07:50:35.320Z,11.30
2019-03-04T07:53:06.481Z,11.30
2019-03-04T07:55:37.580Z,11.40
2019-03-04T07:58:08.807Z,11.40
2019-03-04T08:00:39.959Z,11.50
2019-03-04T08:03:11.118Z,11.70
2019-03-04T08:05:42.260Z,11.90
2019-03-04T08:08:13.513Z,12.10
2019-03-04T08:11:31.366Z,12.30
2019-03-04T08:14:03.182Z,12.50
2019-03-04T08:16:36.102Z,12.60
2019-03-04T08:19:07.266Z,12.70
2019-03-04T08:21:38.458Z,12.80
2019-03-04T08:24:09.660Z,12.80
2019-03-04T08:26:40.825Z,12.80
2019-03-04T08:29:12.197Z,12.70
2019-03-04T08:31:46.958Z,12.70
2019-03-04T08:34:18.040Z,12.70
2019-03-04T08:36:49.248Z,12.80
2019-03-04T08:39:22.812Z,12.90
2019-03-04T08:41:53.288Z,13.00
2019-03-04T08:44:24.590Z,13.00
2019-03-04T08:46:55.796Z,13.00
2019-03-04T08:49:27.016Z,13.00
2019-03-04T08:51:58.655Z,13.10
2019-03-04T08:54:29.768Z,13.30
2019-03-04T08:57:03.915Z,13.40
2019-03-04T08:59:33.759Z,13.60
2019-03-04T09:02:06.049Z,13.80
2019-03-04T09:04:37.312Z,14.00
2019-03-04T09:07:08.502Z,14.20
2019-03-04T09:09:39.703Z,14.40
2019-03-04T09:12:10.904Z,14.50
2019-03-04T09:14:42.182Z,14.70
2019-03-04T09:17:13.414Z,14.80
2019-03-04T09:19:44.593Z,15.00
2019-03-04T09:22:15.767Z,15.10
2019-03-04T09:24:46.979Z,15.20
2019-03-04T09:27:18.186Z,15.30
2019-03-04T09:29:49.358Z,15.50
2019-03-04T09:32:20.469Z,15.70
2019-03-04T09:34:51.597Z,15.70
2019-03-04T09:37:22.727Z,15.70
2019-03-04T09:39:53.958Z,15.80
2019-03-04T09:42:27.474Z,15.80
2019-03-04T09:44:58.673Z,16.00
2019-03-04T09:47:29.799Z,16.20
2019-03-04T09:50:00.989Z,16.40
2019-03-04T09:52:32.343Z,16.60
2019-03-04T09:55:03.495Z,16.60
2019-03-04T09:57:34.883Z,16.60
2019-03-04T10:00:18.193Z,16.60
2019-03-04T10:02:49.364Z,16.60
2019-03-04T10:06:01.413Z,16.70
2019-03-04T10:09:12.468Z,16.60
2019-03-04T10:12:36.576Z,16.40
2019-03-04T10:15:26.803Z,16.30
2019-03-04T10:18:29.056Z,16.20
2019-03-04T10:21:37.844Z,16.20
2019-03-04T10:24:49.075Z,16.30
2019-03-04T10:27:51.532Z,16.50
2019-03-04T10:30:58.275Z,16.50
2019-03-04T10:34:13.226Z,16.40
2019-03-04T10:37:28.589Z,16.30
2019-03-04T10:40:49.759Z,16.20
2019-03-04T10:43:47.990Z,16.30
2019-03-04T10:46:51.279Z,16.50
2019-03-04T10:49:22.613Z,16.70
2019-03-04T10:51:53.908Z,16.90
2019-03-04T10:54:25.316Z,17.00
2019-03-04T10:56:56.670Z,17.10
2019-03-04T10:59:27.854Z,17.10
2019-03-04T11:01:59.059Z,17.00
2019-03-04T11:04:30.268Z,16.90
2019-03-04T11:07:01.385Z,16.70
2019-03-04T11:09:32.673Z,16.60
2019-03-04T11:12:03.913Z,16.50
2019-03-04T11:14:35.057Z,16.50
2019-03-04T11:17:06.235Z,16.50
2019-03-04T11:19:37.371Z,16.50
2019-03-04T11:22:09.093Z,16.60
2019-03-04T11:24:41.344Z,16.70
2019-03-04T11:27:12.501Z,16.90
2019-03-04T11:29:43.796Z,16.80
2019-03-04T11:32:14.927Z,16.80
2019-03-04T11:34:46.179Z,16.70
2019-03-04T11:37:17.325Z,16.70
2019-03-04T11:39:57.600Z,16.50
2019-03-04T11:42:28.753Z,16.50
2019-03-04T11:45:00.020Z,16.40
2019-03-04T11:47:31.206Z,16.40
2019-03-04T11:50:02.386Z,16.40
2019-03-04T11:52:34.942Z,16.40
2019-03-04T11:55:07.215Z,16.30
2019-03-04T11:57:38.392Z,16.20
2019-03-04T12:00:16.299Z,16.10
2019-03-04T12:02:47.658Z,16.00
2019-03-04T12:05:18.727Z,15.90
2019-03-04T12:07:49.860Z,15.80
2019-03-04T12:10:21.074Z,15.70
2019-03-04T12:12:52.239Z,15.60
2019-03-04T12:15:23.493Z,15.60
2019-03-04T12:17:54.715Z,15.50
2019-03-04T12:20:25.843Z,15.50
2019-03-04T12:22:57.041Z,15.40
2019-03-04T12:25:28.270Z,15.40
2019-03-04T12:27:59.484Z,15.40
2019-03-04T12:30:30.688Z,15.30
2019-03-04T12:33:01.848Z,15.20
2019-03-04T12:35:33.025Z,15.20
2019-03-04T12:38:04.311Z,15.10
2019-03-04T12:40:35.506Z,15.10
2019-03-04T12:43:06.785Z,15.10
2019-03-04T12:45:37.976Z,15.10
2019-03-04T12:48:09.155Z,15.10
2019-03-04T12:50:40.374Z,15.00
2019-03-04T12:53:11.564Z,15.00
2019-03-04T12:55:43.705Z,15.00
2019-03-04T12:58:14.901Z,15.00
2019-03-04T13:00:46.046Z,15.00
2019-03-04T13:03:24.251Z,15.00
2019-03-04T13:05:55.404Z,15.10
2019-03-04T13:08:26.628Z,15.10
2019-03-04T13:10:57.816Z,15.20
2019-03-04T13:13:28.969Z,15.20
2019-03-04T13:16:02.594Z,15.20
2019-03-04T13:18:33.917Z,15.20
2019-03-04T13:21:05.242Z,15.20
2019-03-04T13:23:37.359Z,15.20
2019-03-04T13:26:08.499Z,15.20
2019-03-04T13:28:39.609Z,15.30
2019-03-04T13:31:10.724Z,15.40
2019-03-04T13:33:41.857Z,15.50
2019-03-04T13:36:13.246Z,15.60
2019-03-04T13:38:44.726Z,15.60
2019-03-04T13:41:15.893Z,15.70
2019-03-04T13:43:47.065Z,15.70
2019-03-04T13:46:18.175Z,15.80
2019-03-04T13:48:49.425Z,15.90
2019-03-04T13:51:20.638Z,15.90
2019-03-04T13:53:51.707Z,15.90
2019-03-04T13:56:23.049Z,15.90
2019-03-04T13:58:54.396Z,16.00
2019-03-04T14:01:25.562Z,16.00
2019-03-04T14:03:56.879Z,16.00
2019-03-04T14:06:28.086Z,16.00
2019-03-04T14:08:59.250Z,16.00
2019-03-04T14:11:30.586Z,16.00
2019-03-04T14:14:02.165Z,16.00
2019-03-04T14:16:33.485Z,15.90
2019-03-04T14:19:04.770Z,15.90
2019-03-04T14:21:36.045Z,15.90
2019-03-04T14:24:07.122Z,15.80
2019-03-04T14:26:38.287Z,15.80
2019-03-04T14:29:09.404Z,15.80
2019-03-04T14:31:40.747Z,15.80
2019-03-04T14:34:12.191Z,15.80
2019-03-04T14:36:43.777Z,15.80
2019-03-04T14:39:16.853Z,15.80
2019-03-04T14:41:48.357Z,15.90
2019-03-04T14:44:19.859Z,16.00
2019-03-04T14:46:51.506Z,16.10
2019-03-04T14:49:22.840Z,16.20
2019-03-04T14:51:54.396Z,16.40
2019-03-04T14:54:25.682Z,16.50
2019-03-04T14:56:56.977Z,16.60
2019-03-04T14:59:28.431Z,16.70
2019-03-04T15:01:59.849Z,16.70
2019-03-04T15:04:31.049Z,16.70
2019-03-04T15:07:02.263Z,16.70
2019-03-04T15:09:33.517Z,16.60
2019-03-04T15:12:04.774Z,16.60
2019-03-04T15:14:36.018Z,16.50
2019-03-04T15:17:07.399Z,16.50
2019-03-04T15:19:38.619Z,16.40
2019-03-04T15:22:09.856Z,16.30
2019-03-04T15:24:41.072Z,16.30
2019-03-04T15:27:12.385Z,16.10
2019-03-04T15:29:43.581Z,16.00
2019-03-04T15:32:14.714Z,16.00
2019-03-04T15:34:45.894Z,15.90
2019-03-04T15:37:17.137Z,15.80
2019-03-04T15:39:48.348Z,15.80
2019-03-04T15:42:19.513Z,15.70
2019-03-04T15:44:50.813Z,15.60
2019-03-04T15:47:22.002Z,15.60
2019-03-04T15:49:53.208Z,15.60
2019-03-04T15:52:24.409Z,15.50
2019-03-04T15:54:55.722Z,15.50
2019-03-04T15:57:27.007Z,15.40
2019-03-04T15:59:58.236Z,15.40
2019-03-04T16:02:29.915Z,15.40
2019-03-04T16:05:01.433Z,15.40
2019-03-04T16:07:33.602Z,15.40
2019-03-04T16:10:05.749Z,15.30
2019-03-04T16:12:38.565Z,15.20
2019-03-04T16:15:12.753Z,15.20
2019-03-04T16:17:44.138Z,15.00
2019-03-04T16:20:17.204Z,15.00
2019-03-04T16:22:49.435Z,15.00
2019-03-04T16:25:20.735Z,15.00
2019-03-04T16:27:57.222Z,14.90
2019-03-04T16:30:28.755Z,14.90
2019-03-04T16:33:00.035Z,14.80
2019-03-04T16:35:31.172Z,14.80
2019-03-04T16:38:02.446Z,14.70
2019-03-04T16:40:33.717Z,14.60
2019-03-04T16:43:04.951Z,14.60
2019-03-04T16:45:36.260Z,14.60
2019-03-04T16:48:07.457Z,14.50
2019-03-04T16:50:38.685Z,14.40
2019-03-04T16:53:11.085Z,14.40
2019-03-04T16:55:42.352Z,14.30
2019-03-04T16:58:13.604Z,14.30
2019-03-04T17:00:45.425Z,14.20
2019-03-04T17:03:16.623Z,14.20
2019-03-04T17:05:48.206Z,14.20
2019-03-04T17:08:19.446Z,14.20
2019-03-04T17:10:50.851Z,14.10
2019-03-04T17:13:22.379Z,14.10
2019-03-04T17:15:54.043Z,14.00
2019-03-04T17:18:25.615Z,14.10
2019-03-04T17:20:56.907Z,14.10
2019-03-04T17:23:28.378Z,14.00
2019-03-04T17:25:59.571Z,14.00
2019-03-04T17:28:30.983Z,14.00
2019-03-04T17:31:02.269Z,14.00
2019-03-04T17:33:33.538Z,14.00
2019-03-04T17:36:04.963Z,14.00
2019-03-04T17:38:36.192Z,13.90
2019-03-04T17:41:10.386Z,13.90
2019-03-04T17:43:42.399Z,13.80
2019-03-04T17:46:14.719Z,13.70
2019-03-04T17:48:45.975Z,13.70
2019-03-04T17:51:17.453Z,13.60
2019-03-04T17:53:48.819Z,13.50
2019-03-04T17:56:21.056Z,13.40
2019-03-04T17:58:52.371Z,13.40
2019-03-04T18:01:23.807Z,13.40
2019-03-04T18:03:56.283Z,13.30
2019-03-04T18:06:30.070Z,13.40
2019-03-04T18:09:01.288Z,13.40
2019-03-04T18:11:34.149Z,13.40
2019-03-04T18:14:06.525Z,13.30
2019-03-04T18:16:38.101Z,13.30
2019-03-04T18:19:09.790Z,13.20
2019-03-04T18:21:41.069Z,13.10
2019-03-04T18:24:35.282Z,13.10
2019-03-04T18:27:11.922Z,13.00
2019-03-04T18:30:37.657Z,13.00
2019-03-04T18:33:44.458Z,13.00
2019-03-04T18:36:52.398Z,12.90
2019-03-04T18:40:02.354Z,12.80
2019-03-04T18:43:11.221Z,12.80
2019-03-04T18:46:10.900Z,12.70
2019-03-04T18:49:14.433Z,12.60
2019-03-04T18:51:46.457Z,12.60
2019-03-04T18:54:19.625Z,12.60
2019-03-04T18:57:29.293Z,12.60
2019-03-04T19:00:00.773Z,12.60
2019-03-04T19:02:33.357Z,12.60
2019-03-04T19:05:05.048Z,12.60
2019-03-04T19:07:36.517Z,12.60
2019-03-04T19:10:08.275Z,12.60
2019-03-04T19:12:39.579Z,12.60
2019-03-04T19:15:11.475Z,12.50
2019-03-04T19:17:42.634Z,12.50
2019-03-04T19:20:15.520Z,12.40
2019-03-04T19:22:47.164Z,12.40
2019-03-04T19:25:18.578Z,12.40
2019-03-04T19:27:50.009Z,12.40
2019-03-04T19:30:21.268Z,12.40
2019-03-04T19:32:52.627Z,12.40
2019-03-04T19:35:24.248Z,12.40
2019-03-04T19:37:55.762Z,12.30
2019-03-04T19:40:27.022Z,12.30
2019-03-04T19:42:58.342Z,12.20
2019-03-04T19:45:29.731Z,12.10
2019-03-04T19:48:00.989Z,12.10
2019-03-04T19:50:32.513Z,12.00
2019-03-04T19:53:03.774Z,12.00
2019-03-04T19:55:35.225Z,11.90
2019-03-04T19:58:06.778Z,11.90
2019-03-04T20:00:38.395Z,11.80
2019-03-04T20:03:13.287Z,11.70
2019-03-04T20:05:44.782Z,11.70
2019-03-04T20:08:17.098Z,11.70
2019-03-04T20:10:48.711Z,11.70
2019-03-04T20:13:20.407Z,11.70
2019-03-04T20:15:54.113Z,11.70
2019-03-04T20:18:25.799Z,11.80
2019-03-04T20:20:57.706Z,11.80
2019-03-04T20:23:29.115Z,11.80
2019-03-04T20:26:00.457Z,11.80
2019-03-04T20:28:31.977Z,11.70
2019-03-04T20:31:03.241Z,11.70
2019-03-04T20:33:34.546Z,11.70
2019-03-04T20:36:06.144Z,11.70
2019-03-04T20:38:40.899Z,11.70
2019-03-04T20:41:12.114Z,11.70
2019-03-04T20:43:43.286Z,11.70
2019-03-04T20:46:14.728Z,11.70
2019-03-04T20:48:45.988Z,11.70
2019-03-04T20:51:17.384Z,11.80
2019-03-04T20:53:48.638Z,11.70
2019-03-04T20:56:19.886Z,11.60
2019-03-04T20:58:52.309Z,11.50
2019-03-04T21:01:23.698Z,11.40
2019-03-04T21:03:55.822Z,11.20
2019-03-04T21:06:27.767Z,10.80
2019-03-04T21:08:58.884Z,10.60
2019-03-04T21:11:32.113Z,10.30
2019-03-04T21:14:03.732Z,10.00
2019-03-04T21:16:36.198Z,9.80
2019-03-04T21:19:07.485Z,9.50
2019-03-04T21:21:38.882Z,9.30
2019-03-04T21:24:10.302Z,9.20
2019-03-04T21:26:45.343Z,9.10
2019-03-04T21:29:29.876Z,9.00
2019-03-04T21:32:19.254Z,9.00
2019-03-04T21:35:33.506Z,9.00
2019-03-04T21:38:05.266Z,8.90
2019-03-04T21:41:29.655Z,8.90
2019-03-04T21:44:43.929Z,8.80
2019-03-04T21:47:33.520Z,8.70
2019-03-04T21:50:06.715Z,8.70
2019-03-04T21:52:46.656Z,8.60
2019-03-04T21:55:24.699Z,8.50
2019-03-04T21:57:57.766Z,8.50
2019-03-04T22:00:36.142Z,8.50
2019-03-04T22:03:20.459Z,8.40
2019-03-04T22:05:51.743Z,8.40
2019-03-04T22:08:23.195Z,8.30
2019-03-04T22:10:54.650Z,8.30
2019-03-04T22:13:25.916Z,8.20
2019-03-04T22:15:58.244Z,8.20
2019-03-04T22:18:29.366Z,8.20
2019-03-04T22:21:00.612Z,8.10
2019-03-04T22:23:32.994Z,8.10
2019-03-04T22:26:04.219Z,8.10
2019-03-04T22:28:35.408Z,8.00
2019-03-04T22:31:06.571Z,7.90
2019-03-04T22:33:37.724Z,7.90
2019-03-04T22:36:08.855Z,7.80
2019-03-04T22:38:40.074Z,7.70
2019-03-04T22:41:13.701Z,7.60
2019-03-04T22:43:44.185Z,7.60
2019-03-04T22:46:15.329Z,7.50
2019-03-04T22:48:46.592Z,7.50
2019-03-04T22:51:17.992Z,7.50
2019-03-04T22:53:49.343Z,7.50
2019-03-04T22:56:20.556Z,7.50
2019-03-04T22:58:51.808Z,7.50
2019-03-04T23:01:39.205Z,7.60
2019-03-04T23:04:37.409Z,7.60
2019-03-04T23:07:16.922Z,7.60
2019-03-04T23:09:58.659Z,7.60
2019-03-04T23:12:48.167Z,7.60
2019-03-04T23:15:22.424Z,7.60
2019-03-04T23:17:53.819Z,7.60
2019-03-04T23:20:25.280Z,7.50
2019-03-04T23:22:56.847Z,7.50
2019-03-04T23:25:28.007Z,7.50
2019-03-04T23:27:59.181Z,7.50
2019-03-04T23:30:30.273Z,7.50
2019-03-04T23:33:01.468Z,7.50
2019-03-04T23:35:32.656Z,7.50
2019-03-04T23:38:03.859Z,7.50
2019-03-04T23:40:35.364Z,7.50
2019-03-04T23:43:06.675Z,7.50
2019-03-04T23:45:38.023Z,7.50
2019-03-04T23:48:09.425Z,7.50
2019-03-04T23:57:58.808Z,7.40
